sensor_id;sensor_type;location;lat;lon;timestamp;temperature;humidity
23063;DHT22;11699;43.704;10.430;2023-04-28T00:00:23;12.10;99.90
23063;DHT22;11699;43.704;10.430;2023-04-28T00:02:50;12.10;99.90
23063;DHT22;11699;43.704;10.430;2023-04-28T00:05:20;12.10;99.90
23063;DHT22;11699;43.704;10.430;2023-04-28T00:07:48;12.20;99.90
23063;DHT22;11699;43.704;10.430;2023-04-28T00:10:15;12.30;99.90
23063;DHT22;11699;43.704;10.430;2023-04-28T00:12:43;12.30;99.90
23063;DHT22;11699;43.704;10.430;2023-04-28T00:15:10;12.20;99.90
23063;DHT22;11699;43.704;10.430;2023-04-28T00:17:38;12.20;99.90
23063;DHT22;11699;43.704;10.430;2023-04-28T00:20:06;12.10;99.90
23063;DHT22;11699;43.704;10.430;2023-04-28T00:22:35;12.00;99.90
23063;DHT22;11699;43.704;10.430;2023-04-28T00:25:03;12.00;99.90
23063;DHT22;11699;43.704;10.430;2023-04-28T00:27:31;11.90;99.90
23063;DHT22;11699;43.704;10.430;2023-04-28T00:30:00;11.90;99.90
23063;DHT22;11699;43.704;10.430;2023-04-28T00:32:27;11.90;99.90
23063;DHT22;11699;43.704;10.430;2023-04-28T00:34:56;11.90;99.90
23063;DHT22;11699;43.704;10.430;2023-04-28T00:37:24;11.90;99.90
23063;DHT22;11699;43.704;10.430;2023-04-28T00:39:55;12.00;99.90
23063;DHT22;11699;43.704;10.430;2023-04-28T00:42:23;11.90;99.90
23063;DHT22;11699;43.704;10.430;2023-04-28T00:44:50;12.00;99.90
23063;DHT22;11699;43.704;10.430;2023-04-28T00:47:18;12.00;99.90
23063;DHT22;11699;43.704;10.430;2023-04-28T00:49:46;12.00;99.90
23063;DHT22;11699;43.704;10.430;2023-04-28T00:52:14;12.00;99.90
23063;DHT22;11699;43.704;10.430;2023-04-28T00:54:42;12.10;99.90
23063;DHT22;11699;43.704;10.430;2023-04-28T00:57:11;12.20;99.90
23063;DHT22;11699;43.704;10.430;2023-04-28T00:59:38;12.30;99.90
23063;DHT22;11699;43.704;10.430;2023-04-28T01:02:06;12.30;99.90
23063;DHT22;11699;43.704;10.430;2023-04-28T01:04:34;12.30;99.90
23063;DHT22;11699;43.704;10.430;2023-04-28T01:07:02;12.40;99.90
23063;DHT22;11699;43.704;10.430;2023-04-28T01:09:32;12.30;99.90
23063;DHT22;11699;43.704;10.430;2023-04-28T01:12:00;12.20;99.90
23063;DHT22;11699;43.704;10.430;2023-04-28T01:14:29;12.20;99.90
23063;DHT22;11699;43.704;10.430;2023-04-28T01:16:56;12.10;99.90
23063;DHT22;11699;43.704;10.430;2023-04-28T01:19:24;12.00;99.90
23063;DHT22;11699;43.704;10.430;2023-04-28T01:21:53;11.90;99.90
23063;DHT22;11699;43.704;10.430;2023-04-28T01:24:22;11.70;99.90
23063;DHT22;11699;43.704;10.430;2023-04-28T01:26:49;11.60;99.90
23063;DHT22;11699;43.704;10.430;2023-04-28T01:29:17;11.50;99.90
23063;DHT22;11699;43.704;10.430;2023-04-28T01:31:44;11.60;99.90
23063;DHT22;11699;43.704;10.430;2023-04-28T01:34:11;11.60;99.90
23063;DHT22;11699;43.704;10.430;2023-04-28T01:36:39;11.80;99.90
23063;DHT22;11699;43.704;10.430;2023-04-28T01:39:06;11.80;99.90
23063;DHT22;11699;43.704;10.430;2023-04-28T01:41:35;11.80;99.90
23063;DHT22;11699;43.704;10.430;2023-04-28T01:44:03;11.90;99.90
23063;DHT22;11699;43.704;10.430;2023-04-28T01:46:32;11.90;99.90
23063;DHT22;11699;43.704;10.430;2023-04-28T01:49:00;11.90;99.90
23063;DHT22;11699;43.704;10.430;2023-04-28T01:51:28;11.80;99.90
23063;DHT22;11699;43.704;10.430;2023-04-28T01:53:56;11.80;99.90
23063;DHT22;11699;43.704;10.430;2023-04-28T01:56:23;11.80;99.90
23063;DHT22;11699;43.704;10.430;2023-04-28T01:58:53;11.80;99.90
23063;DHT22;11699;43.704;10.430;2023-04-28T02:01:20;11.70;99.90
23063;DHT22;11699;43.704;10.430;2023-04-28T02:03:48;11.30;99.90
23063;DHT22;11699;43.704;10.430;2023-04-28T02:06:15;11.10;99.90
23063;DHT22;11699;43.704;10.430;2023-04-28T02:08:43;10.80;99.90
23063;DHT22;11699;43.704;10.430;2023-04-28T02:11:10;10.70;99.90
23063;DHT22;11699;43.704;10.430;2023-04-28T02:13:38;10.90;99.90
23063;DHT22;11699;43.704;10.430;2023-04-28T02:16:08;11.10;99.90
23063;DHT22;11699;43.704;10.430;2023-04-28T02:18:35;11.20;99.90
23063;DHT22;11699;43.704;10.430;2023-04-28T02:21:08;11.30;99.90
23063;DHT22;11699;43.704;10.430;2023-04-28T02:23:36;11.30;99.90
23063;DHT22;11699;43.704;10.430;2023-04-28T02:26:03;11.30;99.90
23063;DHT22;11699;43.704;10.430;2023-04-28T02:28:30;11.30;99.90
23063;DHT22;11699;43.704;10.430;2023-04-28T02:31:06;11.20;99.90
23063;DHT22;11699;43.704;10.430;2023-04-28T02:33:34;11.30;99.90
23063;DHT22;11699;43.704;10.430;2023-04-28T02:36:02;11.30;99.90
23063;DHT22;11699;43.704;10.430;2023-04-28T02:38:30;11.30;99.90
23063;DHT22;11699;43.704;10.430;2023-04-28T02:40:58;11.30;99.90
23063;DHT22;11699;43.704;10.430;2023-04-28T02:43:25;11.30;99.90
23063;DHT22;11699;43.704;10.430;2023-04-28T02:45:53;11.30;99.90
23063;DHT22;11699;43.704;10.430;2023-04-28T02:48:23;11.40;99.90
23063;DHT22;11699;43.704;10.430;2023-04-28T02:50:51;11.50;99.90
23063;DHT22;11699;43.704;10.430;2023-04-28T02:53:18;11.40;99.90
23063;DHT22;11699;43.704;10.430;2023-04-28T02:55:46;11.30;99.90
23063;DHT22;11699;43.704;10.430;2023-04-28T02:58:14;11.20;99.90
23063;DHT22;11699;43.704;10.430;2023-04-28T03:00:43;11.20;99.90
23063;DHT22;11699;43.704;10.430;2023-04-28T03:03:11;11.30;99.90
23063;DHT22;11699;43.704;10.430;2023-04-28T03:05:41;11.20;99.90
23063;DHT22;11699;43.704;10.430;2023-04-28T03:08:08;11.20;99.90
23063;DHT22;11699;43.704;10.430;2023-04-28T03:10:35;11.10;99.90
23063;DHT22;11699;43.704;10.430;2023-04-28T03:13:03;11.10;99.90
23063;DHT22;11699;43.704;10.430;2023-04-28T03:15:31;11.10;99.90
23063;DHT22;11699;43.704;10.430;2023-04-28T03:17:58;11.00;99.90
23063;DHT22;11699;43.704;10.430;2023-04-28T03:20:26;10.90;99.90
23063;DHT22;11699;43.704;10.430;2023-04-28T03:22:54;10.90;99.90
23063;DHT22;11699;43.704;10.430;2023-04-28T03:25:22;10.80;99.90
23063;DHT22;11699;43.704;10.430;2023-04-28T03:27:49;10.60;99.90
23063;DHT22;11699;43.704;10.430;2023-04-28T03:30:17;10.50;99.90
23063;DHT22;11699;43.704;10.430;2023-04-28T03:32:44;10.50;99.90
23063;DHT22;11699;43.704;10.430;2023-04-28T03:35:12;10.40;99.90
23063;DHT22;11699;43.704;10.430;2023-04-28T03:37:40;10.40;99.90
23063;DHT22;11699;43.704;10.430;2023-04-28T03:40:10;10.40;99.90
23063;DHT22;11699;43.704;10.430;2023-04-28T03:42:38;10.40;99.90
23063;DHT22;11699;43.704;10.430;2023-04-28T03:45:06;10.30;99.90
23063;DHT22;11699;43.704;10.430;2023-04-28T03:47:34;10.30;99.90
23063;DHT22;11699;43.704;10.430;2023-04-28T03:50:02;10.30;99.90
23063;DHT22;11699;43.704;10.430;2023-04-28T03:52:29;10.30;99.90
23063;DHT22;11699;43.704;10.430;2023-04-28T03:54:57;10.30;99.90
23063;DHT22;11699;43.704;10.430;2023-04-28T03:57:26;10.30;99.90
23063;DHT22;11699;43.704;10.430;2023-04-28T03:59:54;10.40;99.90
23063;DHT22;11699;43.704;10.430;2023-04-28T04:02:21;10.40;99.90
23063;DHT22;11699;43.704;10.430;2023-04-28T04:04:48;10.30;99.90
23063;DHT22;11699;43.704;10.430;2023-04-28T04:07:17;10.30;99.90
23063;DHT22;11699;43.704;10.430;2023-04-28T04:09:44;10.30;99.90
23063;DHT22;11699;43.704;10.430;2023-04-28T04:12:11;10.20;99.90
23063;DHT22;11699;43.704;10.430;2023-04-28T04:14:40;10.20;99.90
23063;DHT22;11699;43.704;10.430;2023-04-28T04:17:08;10.10;99.90
23063;DHT22;11699;43.704;10.430;2023-04-28T04:19:36;10.10;99.90
23063;DHT22;11699;43.704;10.430;2023-04-28T04:22:03;10.10;99.90
23063;DHT22;11699;43.704;10.430;2023-04-28T04:24:31;10.10;99.90
23063;DHT22;11699;43.704;10.430;2023-04-28T04:26:58;10.10;99.90
23063;DHT22;11699;43.704;10.430;2023-04-28T04:29:26;10.10;99.90
23063;DHT22;11699;43.704;10.430;2023-04-28T04:31:54;10.10;99.90
23063;DHT22;11699;43.704;10.430;2023-04-28T04:34:22;10.10;99.90
23063;DHT22;11699;43.704;10.430;2023-04-28T04:36:49;10.20;99.90
23063;DHT22;11699;43.704;10.430;2023-04-28T04:39:17;10.20;99.90
23063;DHT22;11699;43.704;10.430;2023-04-28T04:41:44;10.20;99.90
23063;DHT22;11699;43.704;10.430;2023-04-28T04:44:12;10.20;99.90
23063;DHT22;11699;43.704;10.430;2023-04-28T04:46:39;10.20;99.90
23063;DHT22;11699;43.704;10.430;2023-04-28T04:49:08;10.20;99.90
23063;DHT22;11699;43.704;10.430;2023-04-28T04:51:36;10.30;99.90
23063;DHT22;11699;43.704;10.430;2023-04-28T04:54:04;10.30;99.90
23063;DHT22;11699;43.704;10.430;2023-04-28T04:56:31;10.40;99.90
23063;DHT22;11699;43.704;10.430;2023-04-28T04:59:00;10.40;99.90
23063;DHT22;11699;43.704;10.430;2023-04-28T05:01:27;10.40;99.90
23063;DHT22;11699;43.704;10.430;2023-04-28T05:03:54;10.40;99.90
23063;DHT22;11699;43.704;10.430;2023-04-28T05:06:24;10.40;99.90
23063;DHT22;11699;43.704;10.430;2023-04-28T05:08:51;10.50;99.90
23063;DHT22;11699;43.704;10.430;2023-04-28T05:11:19;10.40;99.90
23063;DHT22;11699;43.704;10.430;2023-04-28T05:13:46;10.40;99.90
23063;DHT22;11699;43.704;10.430;2023-04-28T05:16:13;10.40;99.90
23063;DHT22;11699;43.704;10.430;2023-04-28T05:18:41;10.40;99.90
23063;DHT22;11699;43.704;10.430;2023-04-28T05:21:08;10.50;99.90
23063;DHT22;11699;43.704;10.430;2023-04-28T05:23:38;10.60;99.90
23063;DHT22;11699;43.704;10.430;2023-04-28T05:26:05;10.70;99.90
23063;DHT22;11699;43.704;10.430;2023-04-28T05:28:33;10.70;99.90
23063;DHT22;11699;43.704;10.430;2023-04-28T05:31:01;10.70;99.90
23063;DHT22;11699;43.704;10.430;2023-04-28T05:33:28;10.80;99.90
23063;DHT22;11699;43.704;10.430;2023-04-28T05:35:56;11.10;99.90
23063;DHT22;11699;43.704;10.430;2023-04-28T05:38:23;11.20;99.90
23063;DHT22;11699;43.704;10.430;2023-04-28T05:40:52;11.30;99.90
23063;DHT22;11699;43.704;10.430;2023-04-28T05:43:19;11.40;99.90
23063;DHT22;11699;43.704;10.430;2023-04-28T05:45:46;11.40;99.90
23063;DHT22;11699;43.704;10.430;2023-04-28T05:48:14;11.50;99.90
23063;DHT22;11699;43.704;10.430;2023-04-28T05:50:41;11.70;99.90
23063;DHT22;11699;43.704;10.430;2023-04-28T05:53:09;11.60;99.90
23063;DHT22;11699;43.704;10.430;2023-04-28T05:55:36;11.70;99.90
23063;DHT22;11699;43.704;10.430;2023-04-28T05:58:05;11.90;99.90
23063;DHT22;11699;43.704;10.430;2023-04-28T06:00:33;11.90;99.90
23063;DHT22;11699;43.704;10.430;2023-04-28T06:03:00;11.90;99.90
23063;DHT22;11699;43.704;10.430;2023-04-28T06:05:28;12.20;99.90
23063;DHT22;11699;43.704;10.430;2023-04-28T06:07:55;12.30;99.90
23063;DHT22;11699;43.704;10.430;2023-04-28T06:10:25;12.40;99.90
23063;DHT22;11699;43.704;10.430;2023-04-28T06:12:52;12.50;99.90
23063;DHT22;11699;43.704;10.430;2023-04-28T06:15:21;12.60;99.90
23063;DHT22;11699;43.704;10.430;2023-04-28T06:17:48;12.80;99.90
23063;DHT22;11699;43.704;10.430;2023-04-28T06:20:16;12.90;99.90
23063;DHT22;11699;43.704;10.430;2023-04-28T06:22:43;13.10;99.90
23063;DHT22;11699;43.704;10.430;2023-04-28T06:25:11;13.20;99.90
23063;DHT22;11699;43.704;10.430;2023-04-28T06:27:38;13.50;99.90
23063;DHT22;11699;43.704;10.430;2023-04-28T06:30:07;13.70;99.90
23063;DHT22;11699;43.704;10.430;2023-04-28T06:32:36;14.00;99.90
23063;DHT22;11699;43.704;10.430;2023-04-28T06:35:04;14.50;99.90
23063;DHT22;11699;43.704;10.430;2023-04-28T06:37:32;14.80;99.90
23063;DHT22;11699;43.704;10.430;2023-04-28T06:39:59;15.00;99.90
23063;DHT22;11699;43.704;10.430;2023-04-28T06:42:27;15.10;99.90
23063;DHT22;11699;43.704;10.430;2023-04-28T06:44:54;15.10;99.90
23063;DHT22;11699;43.704;10.430;2023-04-28T06:47:21;15.10;99.90
23063;DHT22;11699;43.704;10.430;2023-04-28T06:49:50;15.10;99.90
23063;DHT22;11699;43.704;10.430;2023-04-28T06:52:19;15.20;99.90
23063;DHT22;11699;43.704;10.430;2023-04-28T06:54:47;15.40;99.90
23063;DHT22;11699;43.704;10.430;2023-04-28T06:57:14;16.20;99.90
23063;DHT22;11699;43.704;10.430;2023-04-28T06:59:42;17.80;99.90
23063;DHT22;11699;43.704;10.430;2023-04-28T07:02:11;19.20;99.90
23063;DHT22;11699;43.704;10.430;2023-04-28T07:04:38;20.50;99.90
23063;DHT22;11699;43.704;10.430;2023-04-28T07:07:07;21.20;99.90
23063;DHT22;11699;43.704;10.430;2023-04-28T07:09:35;22.50;99.90
23063;DHT22;11699;43.704;10.430;2023-04-28T07:12:03;22.90;99.90
23063;DHT22;11699;43.704;10.430;2023-04-28T07:14:30;23.60;99.90
23063;DHT22;11699;43.704;10.430;2023-04-28T07:16:58;23.50;99.90
23063;DHT22;11699;43.704;10.430;2023-04-28T07:19:26;23.60;99.90
23063;DHT22;11699;43.704;10.430;2023-04-28T07:21:53;24.30;99.90
23063;DHT22;11699;43.704;10.430;2023-04-28T07:24:22;25.30;99.90
23063;DHT22;11699;43.704;10.430;2023-04-28T07:26:49;25.30;99.90
23063;DHT22;11699;43.704;10.430;2023-04-28T07:29:17;24.40;99.90
23063;DHT22;11699;43.704;10.430;2023-04-28T07:31:45;24.30;99.90
23063;DHT22;11699;43.704;10.430;2023-04-28T07:34:12;24.80;99.90
23063;DHT22;11699;43.704;10.430;2023-04-28T07:36:40;25.10;99.90
23063;DHT22;11699;43.704;10.430;2023-04-28T07:39:08;25.60;99.90
23063;DHT22;11699;43.704;10.430;2023-04-28T07:41:37;25.80;99.60
23063;DHT22;11699;43.704;10.430;2023-04-28T07:44:05;25.60;99.90
23063;DHT22;11699;43.704;10.430;2023-04-28T07:46:33;25.00;99.50
23063;DHT22;11699;43.704;10.430;2023-04-28T07:49:01;25.30;99.90
23063;DHT22;11699;43.704;10.430;2023-04-28T07:51:30;25.60;99.40
23063;DHT22;11699;43.704;10.430;2023-04-28T07:53:58;25.00;99.50
23063;DHT22;11699;43.704;10.430;2023-04-28T07:56:26;24.80;99.90
23063;DHT22;11699;43.704;10.430;2023-04-28T07:58:55;25.50;99.90
23063;DHT22;11699;43.704;10.430;2023-04-28T08:01:22;26.30;99.90
23063;DHT22;11699;43.704;10.430;2023-04-28T08:03:50;26.30;99.50
23063;DHT22;11699;43.704;10.430;2023-04-28T08:06:18;26.40;99.90
23063;DHT22;11699;43.704;10.430;2023-04-28T08:08:45;26.10;98.50
23063;DHT22;11699;43.704;10.430;2023-04-28T08:11:14;25.40;98.70
23063;DHT22;11699;43.704;10.430;2023-04-28T08:13:41;25.60;99.10
23063;DHT22;11699;43.704;10.430;2023-04-28T08:16:10;26.40;99.20
23063;DHT22;11699;43.704;10.430;2023-04-28T08:18:37;27.10;98.50
23063;DHT22;11699;43.704;10.430;2023-04-28T08:21:06;27.20;98.70
23063;DHT22;11699;43.704;10.430;2023-04-28T08:23:33;27.40;98.80
23063;DHT22;11699;43.704;10.430;2023-04-28T08:26:01;27.90;97.90
23063;DHT22;11699;43.704;10.430;2023-04-28T08:28:28;27.90;97.20
23063;DHT22;11699;43.704;10.430;2023-04-28T08:30:56;27.50;97.10
23063;DHT22;11699;43.704;10.430;2023-04-28T08:33:25;27.80;98.30
23063;DHT22;11699;43.704;10.430;2023-04-28T08:35:54;28.10;97.90
23063;DHT22;11699;43.704;10.430;2023-04-28T08:38:22;28.40;97.80
23063;DHT22;11699;43.704;10.430;2023-04-28T08:40:50;28.70;97.30
23063;DHT22;11699;43.704;10.430;2023-04-28T08:43:17;28.50;97.60
23063;DHT22;11699;43.704;10.430;2023-04-28T08:45:46;28.20;97.20
23063;DHT22;11699;43.704;10.430;2023-04-28T08:48:17;28.30;97.10
23063;DHT22;11699;43.704;10.430;2023-04-28T08:50:50;27.90;97.10
23063;DHT22;11699;43.704;10.430;2023-04-28T08:53:23;27.20;96.40
23063;DHT22;11699;43.704;10.430;2023-04-28T08:55:54;26.90;98.20
23063;DHT22;11699;43.704;10.430;2023-04-28T08:58:23;26.80;97.50
23063;DHT22;11699;43.704;10.430;2023-04-28T09:00:50;26.80;98.20
23063;DHT22;11699;43.704;10.430;2023-04-28T09:03:18;26.30;98.50
23063;DHT22;11699;43.704;10.430;2023-04-28T09:05:46;27.00;97.90
23063;DHT22;11699;43.704;10.430;2023-04-28T09:08:15;27.10;98.10
23063;DHT22;11699;43.704;10.430;2023-04-28T09:10:43;27.20;98.60
23063;DHT22;11699;43.704;10.430;2023-04-28T09:13:23;27.40;97.70
23063;DHT22;11699;43.704;10.430;2023-04-28T09:15:58;26.90;97.20
23063;DHT22;11699;43.704;10.430;2023-04-28T09:18:26;26.60;98.00
23063;DHT22;11699;43.704;10.430;2023-04-28T09:21:02;26.60;98.50
23063;DHT22;11699;43.704;10.430;2023-04-28T09:23:31;25.80;99.10
23063;DHT22;11699;43.704;10.430;2023-04-28T09:26:01;25.90;99.20
23063;DHT22;11699;43.704;10.430;2023-04-28T09:28:28;26.80;99.10
23063;DHT22;11699;43.704;10.430;2023-04-28T09:30:56;27.00;98.00
23063;DHT22;11699;43.704;10.430;2023-04-28T09:33:24;26.70;98.80
23063;DHT22;11699;43.704;10.430;2023-04-28T09:35:52;26.60;99.50
23063;DHT22;11699;43.704;10.430;2023-04-28T09:38:21;26.10;98.70
23063;DHT22;11699;43.704;10.430;2023-04-28T09:40:55;25.90;99.70
23063;DHT22;11699;43.704;10.430;2023-04-28T09:43:28;25.40;99.60
23063;DHT22;11699;43.704;10.430;2023-04-28T09:45:57;24.60;99.90
23063;DHT22;11699;43.704;10.430;2023-04-28T09:48:29;24.60;99.90
23063;DHT22;11699;43.704;10.430;2023-04-28T09:50:57;25.10;99.90
23063;DHT22;11699;43.704;10.430;2023-04-28T09:53:25;25.40;99.90
23063;DHT22;11699;43.704;10.430;2023-04-28T09:55:55;24.80;99.90
23063;DHT22;11699;43.704;10.430;2023-04-28T09:58:24;25.40;99.90
23063;DHT22;11699;43.704;10.430;2023-04-28T10:00:53;26.00;99.90
23063;DHT22;11699;43.704;10.430;2023-04-28T10:03:22;25.60;99.90
23063;DHT22;11699;43.704;10.430;2023-04-28T10:05:51;25.00;99.90
23063;DHT22;11699;43.704;10.430;2023-04-28T10:08:19;24.60;99.90
23063;DHT22;11699;43.704;10.430;2023-04-28T10:10:48;24.00;99.90
23063;DHT22;11699;43.704;10.430;2023-04-28T10:13:19;23.60;99.90
23063;DHT22;11699;43.704;10.430;2023-04-28T10:15:48;23.20;99.90
23063;DHT22;11699;43.704;10.430;2023-04-28T10:18:15;23.00;99.90
23063;DHT22;11699;43.704;10.430;2023-04-28T10:20:45;22.70;99.90
23063;DHT22;11699;43.704;10.430;2023-04-28T10:26:13;22.00;99.90
23063;DHT22;11699;43.704;10.430;2023-04-28T10:28:46;21.90;99.90
23063;DHT22;11699;43.704;10.430;2023-04-28T10:31:16;21.80;99.90
23063;DHT22;11699;43.704;10.430;2023-04-28T10:33:45;21.50;99.90
23063;DHT22;11699;43.704;10.430;2023-04-28T10:36:46;21.10;99.90
23063;DHT22;11699;43.704;10.430;2023-04-28T10:39:14;20.90;99.90
23063;DHT22;11699;43.704;10.430;2023-04-28T10:41:41;20.70;99.90
23063;DHT22;11699;43.704;10.430;2023-04-28T10:44:43;20.70;99.90
23063;DHT22;11699;43.704;10.430;2023-04-28T10:47:11;20.50;99.90
23063;DHT22;11699;43.704;10.430;2023-04-28T10:50:07;20.40;99.90
23063;DHT22;11699;43.704;10.430;2023-04-28T10:52:55;20.60;99.90
23063;DHT22;11699;43.704;10.430;2023-04-28T10:55:29;20.70;99.90
23063;DHT22;11699;43.704;10.430;2023-04-28T10:58:29;20.80;99.90
23063;DHT22;11699;43.704;10.430;2023-04-28T11:01:26;20.90;99.90
23063;DHT22;11699;43.704;10.430;2023-04-28T11:03:55;20.80;99.90
23063;DHT22;11699;43.704;10.430;2023-04-28T11:06:30;20.70;99.90
23063;DHT22;11699;43.704;10.430;2023-04-28T11:09:01;20.60;99.90
23063;DHT22;11699;43.704;10.430;2023-04-28T11:11:29;20.40;99.90
23063;DHT22;11699;43.704;10.430;2023-04-28T11:14:30;20.40;99.90
23063;DHT22;11699;43.704;10.430;2023-04-28T11:17:01;20.40;99.90
23063;DHT22;11699;43.704;10.430;2023-04-28T11:19:29;20.50;99.90
23063;DHT22;11699;43.704;10.430;2023-04-28T11:21:59;20.30;99.90
23063;DHT22;11699;43.704;10.430;2023-04-28T11:24:28;20.00;99.90
23063;DHT22;11699;43.704;10.430;2023-04-28T11:26:56;19.90;99.90
23063;DHT22;11699;43.704;10.430;2023-04-28T11:29:30;20.00;99.90
23063;DHT22;11699;43.704;10.430;2023-04-28T11:31:59;20.10;99.90
23063;DHT22;11699;43.704;10.430;2023-04-28T11:34:27;20.40;99.90
23063;DHT22;11699;43.704;10.430;2023-04-28T11:36:55;20.60;99.90
23063;DHT22;11699;43.704;10.430;2023-04-28T11:39:26;21.00;99.90
23063;DHT22;11699;43.704;10.430;2023-04-28T11:41:55;21.30;99.90
23063;DHT22;11699;43.704;10.430;2023-04-28T11:44:25;21.90;99.90
23063;DHT22;11699;43.704;10.430;2023-04-28T11:46:53;22.80;99.90
23063;DHT22;11699;43.704;10.430;2023-04-28T11:49:24;23.80;99.90
23063;DHT22;11699;43.704;10.430;2023-04-28T11:51:53;24.30;99.90
23063;DHT22;11699;43.704;10.430;2023-04-28T11:54:22;24.50;99.90
23063;DHT22;11699;43.704;10.430;2023-04-28T11:56:50;24.30;99.90
23063;DHT22;11699;43.704;10.430;2023-04-28T11:59:21;23.50;99.90
23063;DHT22;11699;43.704;10.430;2023-04-28T12:01:50;22.90;99.90
23063;DHT22;11699;43.704;10.430;2023-04-28T12:04:30;22.80;99.90
23063;DHT22;11699;43.704;10.430;2023-04-28T12:07:02;22.50;99.90
23063;DHT22;11699;43.704;10.430;2023-04-28T12:09:30;22.30;99.90
23063;DHT22;11699;43.704;10.430;2023-04-28T12:11:58;22.30;99.90
23063;DHT22;11699;43.704;10.430;2023-04-28T12:14:28;22.10;99.90
23063;DHT22;11699;43.704;10.430;2023-04-28T12:16:56;22.10;99.90
23063;DHT22;11699;43.704;10.430;2023-04-28T12:19:24;22.30;99.90
23063;DHT22;11699;43.704;10.430;2023-04-28T12:22:03;22.00;99.90
23063;DHT22;11699;43.704;10.430;2023-04-28T12:24:31;21.70;99.90
23063;DHT22;11699;43.704;10.430;2023-04-28T12:27:15;21.60;99.90
23063;DHT22;11699;43.704;10.430;2023-04-28T12:29:43;21.70;99.90
23063;DHT22;11699;43.704;10.430;2023-04-28T12:32:12;21.60;99.90
23063;DHT22;11699;43.704;10.430;2023-04-28T12:34:41;21.40;99.90
23063;DHT22;11699;43.704;10.430;2023-04-28T12:37:10;21.40;99.90
23063;DHT22;11699;43.704;10.430;2023-04-28T12:39:39;21.40;99.90
23063;DHT22;11699;43.704;10.430;2023-04-28T12:42:06;21.50;99.90
23063;DHT22;11699;43.704;10.430;2023-04-28T12:44:35;21.70;99.90
23063;DHT22;11699;43.704;10.430;2023-04-28T12:47:05;22.00;99.90
23063;DHT22;11699;43.704;10.430;2023-04-28T12:49:33;22.20;99.90
23063;DHT22;11699;43.704;10.430;2023-04-28T12:52:00;22.20;99.90
23063;DHT22;11699;43.704;10.430;2023-04-28T12:54:30;22.00;99.90
23063;DHT22;11699;43.704;10.430;2023-04-28T12:56:57;21.70;99.90
23063;DHT22;11699;43.704;10.430;2023-04-28T12:59:24;22.20;99.90
23063;DHT22;11699;43.704;10.430;2023-04-28T13:01:51;22.90;99.90
23063;DHT22;11699;43.704;10.430;2023-04-28T13:04:20;23.20;99.90
23063;DHT22;11699;43.704;10.430;2023-04-28T13:06:48;23.60;99.90
23063;DHT22;11699;43.704;10.430;2023-04-28T13:09:16;23.70;99.90
23063;DHT22;11699;43.704;10.430;2023-04-28T13:11:44;23.70;99.90
23063;DHT22;11699;43.704;10.430;2023-04-28T13:14:12;23.50;99.90
23063;DHT22;11699;43.704;10.430;2023-04-28T13:16:39;23.50;99.90
23063;DHT22;11699;43.704;10.430;2023-04-28T13:19:07;23.80;99.90
23063;DHT22;11699;43.704;10.430;2023-04-28T13:21:38;24.10;99.90
23063;DHT22;11699;43.704;10.430;2023-04-28T13:24:07;24.30;99.90
23063;DHT22;11699;43.704;10.430;2023-04-28T13:26:35;24.20;99.90
23063;DHT22;11699;43.704;10.430;2023-04-28T13:29:04;24.10;99.90
23063;DHT22;11699;43.704;10.430;2023-04-28T13:31:33;24.00;99.90
23063;DHT22;11699;43.704;10.430;2023-04-28T13:34:01;24.10;99.90
23063;DHT22;11699;43.704;10.430;2023-04-28T13:36:30;24.10;99.90
23063;DHT22;11699;43.704;10.430;2023-04-28T13:38:58;24.30;99.90
23063;DHT22;11699;43.704;10.430;2023-04-28T13:41:25;24.30;99.90
23063;DHT22;11699;43.704;10.430;2023-04-28T13:43:53;24.30;99.90
23063;DHT22;11699;43.704;10.430;2023-04-28T13:46:22;24.30;99.90
23063;DHT22;11699;43.704;10.430;2023-04-28T13:48:50;24.10;99.90
23063;DHT22;11699;43.704;10.430;2023-04-28T13:51:18;24.20;99.90
23063;DHT22;11699;43.704;10.430;2023-04-28T13:53:45;24.10;99.90
23063;DHT22;11699;43.704;10.430;2023-04-28T13:56:13;23.90;99.90
23063;DHT22;11699;43.704;10.430;2023-04-28T13:58:40;24.00;99.90
23063;DHT22;11699;43.704;10.430;2023-04-28T14:01:08;24.10;99.90
23063;DHT22;11699;43.704;10.430;2023-04-28T14:03:37;24.20;99.90
23063;DHT22;11699;43.704;10.430;2023-04-28T14:06:05;24.50;99.90
23063;DHT22;11699;43.704;10.430;2023-04-28T14:08:33;24.50;99.90
23063;DHT22;11699;43.704;10.430;2023-04-28T14:11:00;24.40;99.90
23063;DHT22;11699;43.704;10.430;2023-04-28T14:13:27;24.50;99.90
23063;DHT22;11699;43.704;10.430;2023-04-28T14:15:55;24.30;99.90
23063;DHT22;11699;43.704;10.430;2023-04-28T14:18:23;24.20;99.90
23063;DHT22;11699;43.704;10.430;2023-04-28T14:20:52;23.90;99.90
23063;DHT22;11699;43.704;10.430;2023-04-28T14:23:20;24.20;99.90
23063;DHT22;11699;43.704;10.430;2023-04-28T14:25:47;24.60;99.90
23063;DHT22;11699;43.704;10.430;2023-04-28T14:28:15;24.60;99.90
23063;DHT22;11699;43.704;10.430;2023-04-28T14:30:42;24.50;99.90
23063;DHT22;11699;43.704;10.430;2023-04-28T14:33:10;24.00;99.90
23063;DHT22;11699;43.704;10.430;2023-04-28T14:35:37;23.80;99.90
23063;DHT22;11699;43.704;10.430;2023-04-28T14:38:07;23.50;99.90
23063;DHT22;11699;43.704;10.430;2023-04-28T14:40:35;23.30;99.90
23063;DHT22;11699;43.704;10.430;2023-04-28T14:43:02;23.50;99.90
23063;DHT22;11699;43.704;10.430;2023-04-28T14:45:31;23.50;99.90
23063;DHT22;11699;43.704;10.430;2023-04-28T14:47:58;23.50;99.90
23063;DHT22;11699;43.704;10.430;2023-04-28T14:50:26;23.70;99.90
23063;DHT22;11699;43.704;10.430;2023-04-28T14:52:53;23.70;99.90
23063;DHT22;11699;43.704;10.430;2023-04-28T14:55:22;23.50;99.90
23063;DHT22;11699;43.704;10.430;2023-04-28T14:57:50;23.20;99.90
23063;DHT22;11699;43.704;10.430;2023-04-28T15:00:18;22.80;99.90
23063;DHT22;11699;43.704;10.430;2023-04-28T15:02:45;22.60;99.90
23063;DHT22;11699;43.704;10.430;2023-04-28T15:05:13;22.60;99.90
23063;DHT22;11699;43.704;10.430;2023-04-28T15:07:40;22.80;99.90
23063;DHT22;11699;43.704;10.430;2023-04-28T15:10:08;22.90;99.90
23063;DHT22;11699;43.704;10.430;2023-04-28T15:12:37;22.80;99.90
23063;DHT22;11699;43.704;10.430;2023-04-28T15:15:05;22.70;99.90
23063;DHT22;11699;43.704;10.430;2023-04-28T15:17:33;22.50;99.90
23063;DHT22;11699;43.704;10.430;2023-04-28T15:20:01;22.30;99.90
23063;DHT22;11699;43.704;10.430;2023-04-28T15:22:28;22.20;99.90
23063;DHT22;11699;43.704;10.430;2023-04-28T15:24:55;22.20;99.90
23063;DHT22;11699;43.704;10.430;2023-04-28T15:27:23;22.10;99.90